X  Close Metar Aviation Weather Data        CYYC Calgary International
Temperature
11°C Temperature
9°C Dewpoint
88% Humidity



Wind
33 KM/H
21 MPH
9 M/S
18 KTS



330°
NNW
Current Conditions

Windy with Storms Likely Windy , Storms Likely
Pressure 1007 (hPa) - 29.74 (inHg)
Visibility 5 (mile) - 8 (km)
Airport
Airport-code CYYC

Location: Calgary International
Distance: 4 (km)

Metar:
SPECI CYYC 071205Z 33018G25KT 5SM -TSRA BR FEW021 BKN055CB OVC079 11/09 A2975 RMK SF1CB6AC2 SF TR OCNL LTGICCG E SLP070 DENSITY ALT 4200FT

Time: 07-08-2020 06:05 MDT